sensor_id;sensor_type;location;lat;lon;timestamp;P1;durP1;ratioP1;P2;durP2;ratioP2
14592;SDS011;7383;52.354;9.756;2023-03-11T00:00:47;11.95;;;10.85;;
14592;SDS011;7383;52.354;9.756;2023-03-11T00:03:17;10.77;;;9.70;;
14592;SDS011;7383;52.354;9.756;2023-03-11T00:05:44;10.25;;;9.35;;
14592;SDS011;7383;52.354;9.756;2023-03-11T00:08:11;9.80;;;8.85;;
14592;SDS011;7383;52.354;9.756;2023-03-11T00:10:41;9.40;;;8.50;;
14592;SDS011;7383;52.354;9.756;2023-03-11T00:13:10;9.75;;;8.85;;
14592;SDS011;7383;52.354;9.756;2023-03-11T00:15:38;8.85;;;8.15;;
14592;SDS011;7383;52.354;9.756;2023-03-11T00:18:06;8.25;;;7.55;;
14592;SDS011;7383;52.354;9.756;2023-03-11T00:20:38;8.18;;;7.47;;
14592;SDS011;7383;52.354;9.756;2023-03-11T00:23:07;7.97;;;7.28;;
14592;SDS011;7383;52.354;9.756;2023-03-11T00:25:36;7.57;;;6.97;;
14592;SDS011;7383;52.354;9.756;2023-03-11T00:28:04;7.78;;;7.07;;
14592;SDS011;7383;52.354;9.756;2023-03-11T00:30:31;7.07;;;6.47;;
14592;SDS011;7383;52.354;9.756;2023-03-11T00:32:58;7.35;;;6.75;;
14592;SDS011;7383;52.354;9.756;2023-03-11T00:35:26;7.72;;;7.10;;
14592;SDS011;7383;52.354;9.756;2023-03-11T00:37:56;6.57;;;6.07;;
14592;SDS011;7383;52.354;9.756;2023-03-11T00:40:25;6.47;;;5.97;;
14592;SDS011;7383;52.354;9.756;2023-03-11T00:42:53;6.30;;;5.80;;
14592;SDS011;7383;52.354;9.756;2023-03-11T00:45:20;7.07;;;6.53;;
14592;SDS011;7383;52.354;9.756;2023-03-11T00:47:50;6.57;;;6.07;;
14592;SDS011;7383;52.354;9.756;2023-03-11T00:50:18;6.82;;;6.22;;
14592;SDS011;7383;52.354;9.756;2023-03-11T00:52:47;7.10;;;6.60;;
14592;SDS011;7383;52.354;9.756;2023-03-11T00:55:16;6.47;;;5.97;;
14592;SDS011;7383;52.354;9.756;2023-03-11T00:57:44;5.97;;;5.50;;
14592;SDS011;7383;52.354;9.756;2023-03-11T01:00:12;5.97;;;5.57;;
14592;SDS011;7383;52.354;9.756;2023-03-11T01:02:39;5.53;;;5.13;;
14592;SDS011;7383;52.354;9.756;2023-03-11T01:05:06;5.15;;;4.75;;
14592;SDS011;7383;52.354;9.756;2023-03-11T01:07:34;4.55;;;4.25;;
14592;SDS011;7383;52.354;9.756;2023-03-11T01:10:00;4.55;;;4.25;;
14592;SDS011;7383;52.354;9.756;2023-03-11T01:12:28;4.80;;;4.40;;
14592;SDS011;7383;52.354;9.756;2023-03-11T01:14:55;4.30;;;4.00;;
14592;SDS011;7383;52.354;9.756;2023-03-11T01:17:21;4.38;;;4.07;;
14592;SDS011;7383;52.354;9.756;2023-03-11T01:19:48;4.22;;;3.92;;
14592;SDS011;7383;52.354;9.756;2023-03-11T01:22:15;3.97;;;3.67;;
14592;SDS011;7383;52.354;9.756;2023-03-11T01:24:42;3.20;;;3.00;;
14592;SDS011;7383;52.354;9.756;2023-03-11T01:27:08;3.70;;;3.40;;
14592;SDS011;7383;52.354;9.756;2023-03-11T01:29:36;3.20;;;2.90;;
14592;SDS011;7383;52.354;9.756;2023-03-11T01:32:03;3.35;;;3.08;;
14592;SDS011;7383;52.354;9.756;2023-03-11T01:34:30;2.90;;;2.70;;
14592;SDS011;7383;52.354;9.756;2023-03-11T01:36:59;3.00;;;2.80;;
14592;SDS011;7383;52.354;9.756;2023-03-11T01:39:26;2.78;;;2.58;;
14592;SDS011;7383;52.354;9.756;2023-03-11T01:41:52;2.72;;;2.53;;
14592;SDS011;7383;52.354;9.756;2023-03-11T01:44:20;2.83;;;2.63;;
14592;SDS011;7383;52.354;9.756;2023-03-11T01:49:57;2.78;;;2.60;;
14592;SDS011;7383;52.354;9.756;2023-03-11T01:52:23;3.00;;;2.80;;
14592;SDS011;7383;52.354;9.756;2023-03-11T01:54:50;3.65;;;3.35;;
14592;SDS011;7383;52.354;9.756;2023-03-11T01:57:17;3.20;;;3.00;;
14592;SDS011;7383;52.354;9.756;2023-03-11T01:59:45;3.53;;;3.30;;
14592;SDS011;7383;52.354;9.756;2023-03-11T02:02:16;3.63;;;3.42;;
14592;SDS011;7383;52.354;9.756;2023-03-11T02:04:45;3.53;;;3.22;;
14592;SDS011;7383;52.354;9.756;2023-03-11T02:07:13;3.35;;;3.15;;
14592;SDS011;7383;52.354;9.756;2023-03-11T02:09:40;4.03;;;3.72;;
14592;SDS011;7383;52.354;9.756;2023-03-11T02:12:07;3.42;;;3.22;;
14592;SDS011;7383;52.354;9.756;2023-03-11T02:14:36;4.18;;;3.88;;
14592;SDS011;7383;52.354;9.756;2023-03-11T02:17:06;3.22;;;3.03;;
14592;SDS011;7383;52.354;9.756;2023-03-11T02:19:37;3.70;;;3.40;;
14592;SDS011;7383;52.354;9.756;2023-03-11T02:22:11;3.90;;;3.60;;
14592;SDS011;7383;52.354;9.756;2023-03-11T02:24:42;3.15;;;2.95;;
14592;SDS011;7383;52.354;9.756;2023-03-11T02:27:13;3.40;;;3.20;;
14592;SDS011;7383;52.354;9.756;2023-03-11T02:29:43;3.50;;;3.20;;
14592;SDS011;7383;52.354;9.756;2023-03-11T02:32:14;3.50;;;3.10;;
14592;SDS011;7383;52.354;9.756;2023-03-11T02:34:41;3.75;;;3.55;;
14592;SDS011;7383;52.354;9.756;2023-03-11T02:37:08;3.28;;;3.08;;
14592;SDS011;7383;52.354;9.756;2023-03-11T02:39:36;3.55;;;3.33;;
14592;SDS011;7383;52.354;9.756;2023-03-11T02:42:05;3.33;;;3.13;;
14592;SDS011;7383;52.354;9.756;2023-03-11T02:44:39;3.28;;;3.08;;
14592;SDS011;7383;52.354;9.756;2023-03-11T02:47:07;3.53;;;3.33;;
14592;SDS011;7383;52.354;9.756;2023-03-11T02:49:34;3.55;;;3.33;;
14592;SDS011;7383;52.354;9.756;2023-03-11T02:52:02;3.45;;;3.15;;
14592;SDS011;7383;52.354;9.756;2023-03-11T02:54:29;2.92;;;2.72;;
14592;SDS011;7383;52.354;9.756;2023-03-11T02:56:56;3.13;;;2.92;;
14592;SDS011;7383;52.354;9.756;2023-03-11T02:59:22;3.50;;;3.20;;
14592;SDS011;7383;52.354;9.756;2023-03-11T03:01:51;2.90;;;2.70;;
14592;SDS011;7383;52.354;9.756;2023-03-11T03:04:17;3.33;;;3.05;;
14592;SDS011;7383;52.354;9.756;2023-03-11T03:06:44;3.00;;;2.80;;
14592;SDS011;7383;52.354;9.756;2023-03-11T03:09:10;2.70;;;2.50;;
14592;SDS011;7383;52.354;9.756;2023-03-11T03:11:37;2.65;;;2.45;;
14592;SDS011;7383;52.354;9.756;2023-03-11T03:14:03;3.03;;;2.78;;
14592;SDS011;7383;52.354;9.756;2023-03-11T03:16:29;3.13;;;2.83;;
14592;SDS011;7383;52.354;9.756;2023-03-11T03:18:57;2.92;;;2.72;;
14592;SDS011;7383;52.354;9.756;2023-03-11T03:21:24;2.80;;;2.55;;
14592;SDS011;7383;52.354;9.756;2023-03-11T03:23:50;3.03;;;2.83;;
14592;SDS011;7383;52.354;9.756;2023-03-11T03:26:17;3.08;;;2.55;;
14592;SDS011;7383;52.354;9.756;2023-03-11T03:28:43;2.78;;;2.58;;
14592;SDS011;7383;52.354;9.756;2023-03-11T03:31:10;3.20;;;2.90;;
14592;SDS011;7383;52.354;9.756;2023-03-11T03:33:37;3.13;;;2.55;;
14592;SDS011;7383;52.354;9.756;2023-03-11T03:36:06;3.10;;;2.60;;
14592;SDS011;7383;52.354;9.756;2023-03-11T03:38:33;3.75;;;2.92;;
14592;SDS011;7383;52.354;9.756;2023-03-11T03:41:00;3.03;;;2.72;;
14592;SDS011;7383;52.354;9.756;2023-03-11T03:43:26;2.42;;;2.33;;
14592;SDS011;7383;52.354;9.756;2023-03-11T03:45:56;2.92;;;2.40;;
14592;SDS011;7383;52.354;9.756;2023-03-11T03:48:22;3.05;;;2.45;;
14592;SDS011;7383;52.354;9.756;2023-03-11T03:50:49;3.38;;;2.67;;
14592;SDS011;7383;52.354;9.756;2023-03-11T03:53:17;2.60;;;2.10;;
14592;SDS011;7383;52.354;9.756;2023-03-11T03:55:43;4.05;;;2.45;;
14592;SDS011;7383;52.354;9.756;2023-03-11T03:58:10;2.60;;;2.40;;
14592;SDS011;7383;52.354;9.756;2023-03-11T04:00:36;2.88;;;2.67;;
14592;SDS011;7383;52.354;9.756;2023-03-11T04:03:03;2.92;;;2.70;;
14592;SDS011;7383;52.354;9.756;2023-03-11T04:05:30;2.45;;;2.25;;
14592;SDS011;7383;52.354;9.756;2023-03-11T04:07:57;3.78;;;2.40;;
14592;SDS011;7383;52.354;9.756;2023-03-11T04:10:26;2.53;;;2.33;;
14592;SDS011;7383;52.354;9.756;2023-03-11T04:12:52;2.97;;;2.22;;
14592;SDS011;7383;52.354;9.756;2023-03-11T04:15:19;2.13;;;2.03;;
14592;SDS011;7383;52.354;9.756;2023-03-11T04:17:45;2.72;;;2.03;;
14592;SDS011;7383;52.354;9.756;2023-03-11T04:20:12;3.25;;;2.28;;
14592;SDS011;7383;52.354;9.756;2023-03-11T04:22:38;2.03;;;1.70;;
14592;SDS011;7383;52.354;9.756;2023-03-11T04:25:05;3.10;;;2.30;;
14592;SDS011;7383;52.354;9.756;2023-03-11T04:27:33;2.40;;;2.20;;
14592;SDS011;7383;52.354;9.756;2023-03-11T04:30:02;3.30;;;2.33;;
14592;SDS011;7383;52.354;9.756;2023-03-11T04:32:29;2.55;;;1.90;;
14592;SDS011;7383;52.354;9.756;2023-03-11T04:34:56;2.13;;;1.80;;
14592;SDS011;7383;52.354;9.756;2023-03-11T04:37:25;3.22;;;1.80;;
14592;SDS011;7383;52.354;9.756;2023-03-11T04:39:52;2.67;;;1.88;;
14592;SDS011;7383;52.354;9.756;2023-03-11T04:42:19;3.30;;;1.83;;
14592;SDS011;7383;52.354;9.756;2023-03-11T04:44:47;1.92;;;1.75;;
14592;SDS011;7383;52.354;9.756;2023-03-11T04:47:13;2.80;;;1.90;;
14592;SDS011;7383;52.354;9.756;2023-03-11T04:49:40;2.65;;;1.92;;
14592;SDS011;7383;52.354;9.756;2023-03-11T04:52:07;2.92;;;1.92;;
14592;SDS011;7383;52.354;9.756;2023-03-11T04:54:33;2.65;;;1.90;;
14592;SDS011;7383;52.354;9.756;2023-03-11T04:57:00;2.17;;;1.95;;
14592;SDS011;7383;52.354;9.756;2023-03-11T04:59:26;3.53;;;2.08;;
14592;SDS011;7383;52.354;9.756;2023-03-11T05:01:54;3.83;;;2.22;;
14592;SDS011;7383;52.354;9.756;2023-03-11T05:04:20;3.00;;;1.65;;
14592;SDS011;7383;52.354;9.756;2023-03-11T05:06:47;2.65;;;1.85;;
14592;SDS011;7383;52.354;9.756;2023-03-11T05:09:15;3.30;;;1.50;;
14592;SDS011;7383;52.354;9.756;2023-03-11T05:11:41;3.17;;;1.95;;
14592;SDS011;7383;52.354;9.756;2023-03-11T05:14:08;1.85;;;1.50;;
14592;SDS011;7383;52.354;9.756;2023-03-11T05:16:34;3.80;;;1.85;;
14592;SDS011;7383;52.354;9.756;2023-03-11T05:19:02;1.70;;;1.60;;
14592;SDS011;7383;52.354;9.756;2023-03-11T05:21:49;1.95;;;1.70;;
14592;SDS011;7383;52.354;9.756;2023-03-11T05:24:16;2.80;;;2.03;;
14592;SDS011;7383;52.354;9.756;2023-03-11T05:26:42;1.98;;;1.77;;
14592;SDS011;7383;52.354;9.756;2023-03-11T05:29:09;2.42;;;1.40;;
14592;SDS011;7383;52.354;9.756;2023-03-11T05:31:36;3.03;;;1.70;;
14592;SDS011;7383;52.354;9.756;2023-03-11T05:34:04;2.80;;;1.45;;
14592;SDS011;7383;52.354;9.756;2023-03-11T05:36:31;3.83;;;1.85;;
14592;SDS011;7383;52.354;9.756;2023-03-11T05:38:57;3.38;;;1.42;;
14592;SDS011;7383;52.354;9.756;2023-03-11T05:41:24;1.88;;;1.50;;
14592;SDS011;7383;52.354;9.756;2023-03-11T05:43:50;2.88;;;1.70;;
14592;SDS011;7383;52.354;9.756;2023-03-11T05:46:17;1.70;;;1.50;;
14592;SDS011;7383;52.354;9.756;2023-03-11T05:48:44;2.15;;;1.30;;
14592;SDS011;7383;52.354;9.756;2023-03-11T05:51:12;1.85;;;1.70;;
14592;SDS011;7383;52.354;9.756;2023-03-11T05:53:41;1.83;;;1.55;;
14592;SDS011;7383;52.354;9.756;2023-03-11T05:56:12;2.30;;;1.50;;
14592;SDS011;7383;52.354;9.756;2023-03-11T05:58:38;1.58;;;1.23;;
14592;SDS011;7383;52.354;9.756;2023-03-11T06:01:06;2.65;;;1.70;;
14592;SDS011;7383;52.354;9.756;2023-03-11T06:03:34;2.25;;;1.27;;
14592;SDS011;7383;52.354;9.756;2023-03-11T06:06:00;1.60;;;1.50;;
14592;SDS011;7383;52.354;9.756;2023-03-11T06:08:28;2.83;;;1.58;;
14592;SDS011;7383;52.354;9.756;2023-03-11T06:10:59;2.67;;;1.70;;
14592;SDS011;7383;52.354;9.756;2023-03-11T06:13:26;3.53;;;1.85;;
14592;SDS011;7383;52.354;9.756;2023-03-11T06:15:53;2.55;;;1.52;;
14592;SDS011;7383;52.354;9.756;2023-03-11T06:18:20;4.03;;;1.63;;
14592;SDS011;7383;52.354;9.756;2023-03-11T06:20:46;1.92;;;1.40;;
14592;SDS011;7383;52.354;9.756;2023-03-11T06:23:13;1.92;;;1.67;;
14592;SDS011;7383;52.354;9.756;2023-03-11T06:25:41;3.28;;;1.70;;
14592;SDS011;7383;52.354;9.756;2023-03-11T06:28:07;2.08;;;1.63;;
14592;SDS011;7383;52.354;9.756;2023-03-11T06:30:34;2.15;;;1.65;;
14592;SDS011;7383;52.354;9.756;2023-03-11T06:33:00;3.95;;;1.60;;
14592;SDS011;7383;52.354;9.756;2023-03-11T06:35:27;4.28;;;1.70;;
14592;SDS011;7383;52.354;9.756;2023-03-11T06:37:53;3.15;;;1.80;;
14592;SDS011;7383;52.354;9.756;2023-03-11T06:40:20;2.17;;;1.45;;
14592;SDS011;7383;52.354;9.756;2023-03-11T06:42:47;3.72;;;1.52;;
14592;SDS011;7383;52.354;9.756;2023-03-11T06:45:14;2.65;;;1.55;;
14592;SDS011;7383;52.354;9.756;2023-03-11T06:47:40;3.35;;;1.92;;
14592;SDS011;7383;52.354;9.756;2023-03-11T06:50:07;3.17;;;1.63;;
14592;SDS011;7383;52.354;9.756;2023-03-11T06:52:34;3.15;;;1.50;;
14592;SDS011;7383;52.354;9.756;2023-03-11T06:55:00;3.22;;;1.75;;
14592;SDS011;7383;52.354;9.756;2023-03-11T06:57:28;2.55;;;1.67;;
14592;SDS011;7383;52.354;9.756;2023-03-11T06:59:56;2.15;;;1.75;;
14592;SDS011;7383;52.354;9.756;2023-03-11T07:02:22;1.92;;;1.40;;
14592;SDS011;7383;52.354;9.756;2023-03-11T07:04:52;2.40;;;1.20;;
14592;SDS011;7383;52.354;9.756;2023-03-11T07:07:18;1.88;;;1.40;;
14592;SDS011;7383;52.354;9.756;2023-03-11T07:09:45;2.58;;;1.83;;
14592;SDS011;7383;52.354;9.756;2023-03-11T07:12:11;1.60;;;1.30;;
14592;SDS011;7383;52.354;9.756;2023-03-11T07:14:38;2.78;;;1.58;;
14592;SDS011;7383;52.354;9.756;2023-03-11T07:17:07;2.50;;;1.52;;
14592;SDS011;7383;52.354;9.756;2023-03-11T07:19:34;2.67;;;1.65;;
14592;SDS011;7383;52.354;9.756;2023-03-11T07:22:00;3.47;;;1.60;;
14592;SDS011;7383;52.354;9.756;2023-03-11T07:24:27;1.83;;;1.30;;
14592;SDS011;7383;52.354;9.756;2023-03-11T07:26:54;3.00;;;1.63;;
14592;SDS011;7383;52.354;9.756;2023-03-11T07:29:21;2.33;;;1.50;;
14592;SDS011;7383;52.354;9.756;2023-03-11T07:31:47;2.58;;;1.85;;
14592;SDS011;7383;52.354;9.756;2023-03-11T07:34:15;2.92;;;1.40;;
14592;SDS011;7383;52.354;9.756;2023-03-11T07:36:42;3.85;;;1.70;;
14592;SDS011;7383;52.354;9.756;2023-03-11T07:39:09;3.33;;;1.83;;
14592;SDS011;7383;52.354;9.756;2023-03-11T07:41:38;2.45;;;1.50;;
14592;SDS011;7383;52.354;9.756;2023-03-11T07:44:04;2.42;;;1.45;;
14592;SDS011;7383;52.354;9.756;2023-03-11T07:46:31;1.55;;;1.33;;
14592;SDS011;7383;52.354;9.756;2023-03-11T07:48:59;2.35;;;1.30;;
14592;SDS011;7383;52.354;9.756;2023-03-11T07:51:28;2.05;;;1.60;;
14592;SDS011;7383;52.354;9.756;2023-03-11T07:53:57;3.35;;;1.67;;
14592;SDS011;7383;52.354;9.756;2023-03-11T07:56:25;2.08;;;1.70;;
14592;SDS011;7383;52.354;9.756;2023-03-11T07:58:56;2.10;;;1.45;;
14592;SDS011;7383;52.354;9.756;2023-03-11T08:01:23;2.33;;;1.40;;
14592;SDS011;7383;52.354;9.756;2023-03-11T08:03:54;2.50;;;1.95;;
14592;SDS011;7383;52.354;9.756;2023-03-11T08:06:23;1.95;;;1.30;;
14592;SDS011;7383;52.354;9.756;2023-03-11T08:08:52;2.17;;;1.50;;
14592;SDS011;7383;52.354;9.756;2023-03-11T08:11:19;1.95;;;1.40;;
14592;SDS011;7383;52.354;9.756;2023-03-11T08:13:46;3.00;;;1.55;;
14592;SDS011;7383;52.354;9.756;2023-03-11T08:16:14;1.83;;;1.55;;
14592;SDS011;7383;52.354;9.756;2023-03-11T08:18:43;2.17;;;1.50;;
14592;SDS011;7383;52.354;9.756;2023-03-11T08:21:11;4.00;;;1.90;;
14592;SDS011;7383;52.354;9.756;2023-03-11T08:23:39;3.53;;;2.10;;
14592;SDS011;7383;52.354;9.756;2023-03-11T08:26:10;1.98;;;1.50;;
14592;SDS011;7383;52.354;9.756;2023-03-11T08:28:38;2.45;;;1.58;;
14592;SDS011;7383;52.354;9.756;2023-03-11T08:31:10;2.58;;;1.70;;
14592;SDS011;7383;52.354;9.756;2023-03-11T08:33:38;2.03;;;1.27;;
14592;SDS011;7383;52.354;9.756;2023-03-11T08:36:05;3.00;;;1.67;;
14592;SDS011;7383;52.354;9.756;2023-03-11T08:38:32;2.25;;;1.85;;
14592;SDS011;7383;52.354;9.756;2023-03-11T08:40:58;1.67;;;1.35;;
14592;SDS011;7383;52.354;9.756;2023-03-11T08:43:26;2.13;;;1.70;;
14592;SDS011;7383;52.354;9.756;2023-03-11T08:45:53;1.38;;;1.27;;
14592;SDS011;7383;52.354;9.756;2023-03-11T08:48:19;2.53;;;1.30;;
14592;SDS011;7383;52.354;9.756;2023-03-11T08:50:47;2.55;;;1.98;;
14592;SDS011;7383;52.354;9.756;2023-03-11T08:53:13;1.73;;;1.58;;
14592;SDS011;7383;52.354;9.756;2023-03-11T08:55:40;3.08;;;1.60;;
14592;SDS011;7383;52.354;9.756;2023-03-11T08:58:06;1.65;;;1.48;;
14592;SDS011;7383;52.354;9.756;2023-03-11T09:00:35;2.83;;;1.40;;
14592;SDS011;7383;52.354;9.756;2023-03-11T09:03:01;2.05;;;1.63;;
14592;SDS011;7383;52.354;9.756;2023-03-11T09:05:27;2.05;;;1.58;;
14592;SDS011;7383;52.354;9.756;2023-03-11T09:07:54;2.45;;;1.70;;
14592;SDS011;7383;52.354;9.756;2023-03-11T09:10:21;2.15;;;1.73;;
14592;SDS011;7383;52.354;9.756;2023-03-11T09:12:48;1.55;;;1.45;;
14592;SDS011;7383;52.354;9.756;2023-03-11T09:15:15;1.50;;;1.40;;
14592;SDS011;7383;52.354;9.756;2023-03-11T09:17:42;2.08;;;1.75;;
14592;SDS011;7383;52.354;9.756;2023-03-11T09:20:10;3.65;;;1.45;;
14592;SDS011;7383;52.354;9.756;2023-03-11T09:22:37;1.63;;;1.50;;
14592;SDS011;7383;52.354;9.756;2023-03-11T09:25:04;2.38;;;1.50;;
14592;SDS011;7383;52.354;9.756;2023-03-11T09:27:32;2.65;;;1.85;;
14592;SDS011;7383;52.354;9.756;2023-03-11T09:29:58;2.75;;;1.60;;
14592;SDS011;7383;52.354;9.756;2023-03-11T09:32:25;2.25;;;1.63;;
14592;SDS011;7383;52.354;9.756;2023-03-11T09:34:52;3.67;;;1.67;;
14592;SDS011;7383;52.354;9.756;2023-03-11T09:37:19;2.58;;;1.40;;
14592;SDS011;7383;52.354;9.756;2023-03-11T09:39:45;1.92;;;1.73;;
14592;SDS011;7383;52.354;9.756;2023-03-11T09:42:14;2.58;;;1.42;;
14592;SDS011;7383;52.354;9.756;2023-03-11T09:44:53;2.17;;;1.60;;
14592;SDS011;7383;52.354;9.756;2023-03-11T09:47:29;2.22;;;1.50;;
14592;SDS011;7383;52.354;9.756;2023-03-11T09:50:14;3.17;;;1.77;;
14592;SDS011;7383;52.354;9.756;2023-03-11T09:52:50;1.98;;;1.55;;
14592;SDS011;7383;52.354;9.756;2023-03-11T09:55:27;1.52;;;1.42;;
14592;SDS011;7383;52.354;9.756;2023-03-11T09:57:59;2.47;;;1.50;;
14592;SDS011;7383;52.354;9.756;2023-03-11T10:00:28;2.05;;;1.48;;
14592;SDS011;7383;52.354;9.756;2023-03-11T10:02:55;2.67;;;1.60;;
14592;SDS011;7383;52.354;9.756;2023-03-11T10:05:25;2.05;;;1.50;;
14592;SDS011;7383;52.354;9.756;2023-03-11T10:07:56;3.13;;;1.50;;
14592;SDS011;7383;52.354;9.756;2023-03-11T10:10:26;1.88;;;1.40;;
14592;SDS011;7383;52.354;9.756;2023-03-11T10:13:06;2.78;;;1.45;;
14592;SDS011;7383;52.354;9.756;2023-03-11T10:15:39;3.20;;;1.70;;
14592;SDS011;7383;52.354;9.756;2023-03-11T10:18:25;1.52;;;1.33;;
14592;SDS011;7383;52.354;9.756;2023-03-11T10:21:06;2.97;;;1.42;;
14592;SDS011;7383;52.354;9.756;2023-03-11T10:23:46;2.28;;;1.48;;
14592;SDS011;7383;52.354;9.756;2023-03-11T10:26:25;1.48;;;1.27;;
14592;SDS011;7383;52.354;9.756;2023-03-11T10:28:57;2.05;;;1.50;;
14592;SDS011;7383;52.354;9.756;2023-03-11T10:31:29;2.58;;;1.55;;
14592;SDS011;7383;52.354;9.756;2023-03-11T10:34:01;3.55;;;1.70;;
14592;SDS011;7383;52.354;9.756;2023-03-11T10:36:34;1.42;;;1.33;;
14592;SDS011;7383;52.354;9.756;2023-03-11T10:39:05;3.08;;;1.40;;
14592;SDS011;7383;52.354;9.756;2023-03-11T10:41:37;2.60;;;1.45;;
14592;SDS011;7383;52.354;9.756;2023-03-11T10:44:08;2.33;;;1.63;;
14592;SDS011;7383;52.354;9.756;2023-03-11T10:46:39;2.67;;;1.70;;
14592;SDS011;7383;52.354;9.756;2023-03-11T10:49:07;3.38;;;1.73;;
14592;SDS011;7383;52.354;9.756;2023-03-11T10:51:39;4.30;;;1.50;;
14592;SDS011;7383;52.354;9.756;2023-03-11T10:54:10;2.63;;;1.50;;
14592;SDS011;7383;52.354;9.756;2023-03-11T10:56:49;2.38;;;1.52;;
14592;SDS011;7383;52.354;9.756;2023-03-11T10:59:21;3.83;;;1.40;;
14592;SDS011;7383;52.354;9.756;2023-03-11T11:01:52;2.15;;;1.45;;
14592;SDS011;7383;52.354;9.756;2023-03-11T11:04:30;2.10;;;1.60;;
14592;SDS011;7383;52.354;9.756;2023-03-11T11:07:25;1.45;;;1.35;;
14592;SDS011;7383;52.354;9.756;2023-03-11T11:10:14;1.83;;;1.45;;
14592;SDS011;7383;52.354;9.756;2023-03-11T11:12:54;2.00;;;1.80;;
14592;SDS011;7383;52.354;9.756;2023-03-11T11:15:24;3.17;;;1.48;;
14592;SDS011;7383;52.354;9.756;2023-03-11T11:17:52;2.55;;;1.98;;
14592;SDS011;7383;52.354;9.756;2023-03-11T11:20:21;1.63;;;1.52;;
14592;SDS011;7383;52.354;9.756;2023-03-11T11:22:51;2.17;;;1.90;;
14592;SDS011;7383;52.354;9.756;2023-03-11T11:25:27;2.15;;;1.77;;
14592;SDS011;7383;52.354;9.756;2023-03-11T11:27:59;1.95;;;1.70;;
14592;SDS011;7383;52.354;9.756;2023-03-11T11:30:27;1.85;;;1.70;;
14592;SDS011;7383;52.354;9.756;2023-03-11T11:32:54;1.50;;;1.40;;
14592;SDS011;7383;52.354;9.756;2023-03-11T11:35:22;1.95;;;1.65;;
14592;SDS011;7383;52.354;9.756;2023-03-11T11:37:51;2.38;;;1.80;;
14592;SDS011;7383;52.354;9.756;2023-03-11T11:40:22;1.65;;;1.30;;
14592;SDS011;7383;52.354;9.756;2023-03-11T11:42:52;1.55;;;1.45;;
14592;SDS011;7383;52.354;9.756;2023-03-11T11:45:23;1.73;;;1.63;;
14592;SDS011;7383;52.354;9.756;2023-03-11T11:47:57;1.85;;;1.60;;
14592;SDS011;7383;52.354;9.756;2023-03-11T11:50:27;2.83;;;1.73;;
14592;SDS011;7383;52.354;9.756;2023-03-11T11:53:02;2.30;;;1.50;;
14592;SDS011;7383;52.354;9.756;2023-03-11T11:55:38;2.20;;;1.80;;
14592;SDS011;7383;52.354;9.756;2023-03-11T11:58:09;1.60;;;1.48;;
14592;SDS011;7383;52.354;9.756;2023-03-11T12:00:38;1.40;;;1.30;;
14592;SDS011;7383;52.354;9.756;2023-03-11T12:03:18;2.30;;;1.50;;
14592;SDS011;7383;52.354;9.756;2023-03-11T12:05:58;1.80;;;1.70;;
14592;SDS011;7383;52.354;9.756;2023-03-11T12:08:33;2.70;;;2.50;;
14592;SDS011;7383;52.354;9.756;2023-03-11T12:11:07;3.08;;;2.00;;
14592;SDS011;7383;52.354;9.756;2023-03-11T12:13:44;3.75;;;1.90;;
14592;SDS011;7383;52.354;9.756;2023-03-11T12:16:19;2.38;;;1.60;;
14592;SDS011;7383;52.354;9.756;2023-03-11T12:18:53;2.90;;;1.63;;
14592;SDS011;7383;52.354;9.756;2023-03-11T12:21:28;1.60;;;1.50;;
14592;SDS011;7383;52.354;9.756;2023-03-11T12:24:10;2.13;;;1.67;;
14592;SDS011;7383;52.354;9.756;2023-03-11T12:26:56;2.03;;;1.52;;
14592;SDS011;7383;52.354;9.756;2023-03-11T12:29:28;1.63;;;1.50;;
14592;SDS011;7383;52.354;9.756;2023-03-11T12:31:59;1.60;;;1.48;;
14592;SDS011;7383;52.354;9.756;2023-03-11T12:34:27;3.67;;;1.30;;
14592;SDS011;7383;52.354;9.756;2023-03-11T12:37:10;1.40;;;1.30;;
14592;SDS011;7383;52.354;9.756;2023-03-11T12:39:42;2.17;;;1.70;;
14592;SDS011;7383;52.354;9.756;2023-03-11T12:42:13;2.05;;;1.48;;
14592;SDS011;7383;52.354;9.756;2023-03-11T12:44:41;2.28;;;1.30;;
14592;SDS011;7383;52.354;9.756;2023-03-11T12:47:18;2.00;;;1.60;;
14592;SDS011;7383;52.354;9.756;2023-03-11T12:49:51;4.35;;;1.38;;
14592;SDS011;7383;52.354;9.756;2023-03-11T12:52:21;2.63;;;1.30;;
14592;SDS011;7383;52.354;9.756;2023-03-11T12:58:14;1.90;;;1.45;;
14592;SDS011;7383;52.354;9.756;2023-03-11T13:01:13;2.05;;;1.40;;
14592;SDS011;7383;52.354;9.756;2023-03-11T13:03:55;3.13;;;1.40;;
14592;SDS011;7383;52.354;9.756;2023-03-11T13:09:40;1.73;;;1.30;;
14592;SDS011;7383;52.354;9.756;2023-03-11T13:15:20;1.60;;;1.23;;
14592;SDS011;7383;52.354;9.756;2023-03-11T13:17:56;1.77;;;1.30;;
14592;SDS011;7383;52.354;9.756;2023-03-11T13:20:43;1.40;;;1.30;;
14592;SDS011;7383;52.354;9.756;2023-03-11T13:23:24;1.42;;;1.30;;
14592;SDS011;7383;52.354;9.756;2023-03-11T13:29:01;2.60;;;1.30;;
14592;SDS011;7383;52.354;9.756;2023-03-11T13:31:51;2.92;;;1.50;;
14592;SDS011;7383;52.354;9.756;2023-03-11T13:34:30;1.95;;;1.27;;
14592;SDS011;7383;52.354;9.756;2023-03-11T13:37:11;2.28;;;1.52;;
14592;SDS011;7383;52.354;9.756;2023-03-11T13:39:55;2.35;;;1.60;;
14592;SDS011;7383;52.354;9.756;2023-03-11T13:42:39;1.52;;;1.27;;
14592;SDS011;7383;52.354;9.756;2023-03-11T13:45:12;2.78;;;1.35;;
14592;SDS011;7383;52.354;9.756;2023-03-11T13:47:47;2.17;;;1.58;;
14592;SDS011;7383;52.354;9.756;2023-03-11T13:50:16;1.95;;;1.42;;
14592;SDS011;7383;52.354;9.756;2023-03-11T13:52:48;2.28;;;1.40;;
14592;SDS011;7383;52.354;9.756;2023-03-11T13:55:18;2.63;;;1.35;;
14592;SDS011;7383;52.354;9.756;2023-03-11T13:57:50;2.88;;;1.65;;
14592;SDS011;7383;52.354;9.756;2023-03-11T14:00:18;1.27;;;1.02;;
14592;SDS011;7383;52.354;9.756;2023-03-11T14:02:50;1.40;;;1.17;;
14592;SDS011;7383;52.354;9.756;2023-03-11T14:05:21;2.13;;;1.30;;
14592;SDS011;7383;52.354;9.756;2023-03-11T14:07:49;1.52;;;1.00;;
14592;SDS011;7383;52.354;9.756;2023-03-11T14:10:17;1.17;;;0.90;;
14592;SDS011;7383;52.354;9.756;2023-03-11T14:12:48;1.77;;;1.20;;
14592;SDS011;7383;52.354;9.756;2023-03-11T14:15:17;1.60;;;1.08;;
14592;SDS011;7383;52.354;9.756;2023-03-11T14:17:46;1.52;;;1.02;;
14592;SDS011;7383;52.354;9.756;2023-03-11T14:20:15;2.33;;;1.33;;
14592;SDS011;7383;52.354;9.756;2023-03-11T14:22:44;1.08;;;0.80;;
14592;SDS011;7383;52.354;9.756;2023-03-11T14:25:16;1.45;;;0.80;;
14592;SDS011;7383;52.354;9.756;2023-03-11T14:27:45;1.20;;;0.60;;
14592;SDS011;7383;52.354;9.756;2023-03-11T14:30:20;1.40;;;0.90;;
14592;SDS011;7383;52.354;9.756;2023-03-11T14:32:56;1.00;;;0.75;;
14592;SDS011;7383;52.354;9.756;2023-03-11T14:35:28;1.52;;;1.20;;
14592;SDS011;7383;52.354;9.756;2023-03-11T14:37:55;1.02;;;0.90;;
14592;SDS011;7383;52.354;9.756;2023-03-11T14:40:24;1.42;;;1.05;;
14592;SDS011;7383;52.354;9.756;2023-03-11T14:42:53;1.77;;;0.75;;
14592;SDS011;7383;52.354;9.756;2023-03-11T14:45:22;0.95;;;0.85;;
14592;SDS011;7383;52.354;9.756;2023-03-11T14:47:54;0.90;;;0.90;;
14592;SDS011;7383;52.354;9.756;2023-03-11T14:50:23;1.45;;;1.10;;
14592;SDS011;7383;52.354;9.756;2023-03-11T14:52:54;1.13;;;0.90;;
14592;SDS011;7383;52.354;9.756;2023-03-11T14:55:25;1.08;;;0.75;;
14592;SDS011;7383;52.354;9.756;2023-03-11T15:01:00;1.35;;;0.82;;
14592;SDS011;7383;52.354;9.756;2023-03-11T15:04:04;2.45;;;1.02;;
14592;SDS011;7383;52.354;9.756;2023-03-11T15:06:37;0.80;;;0.80;;
14592;SDS011;7383;52.354;9.756;2023-03-11T15:19:58;0.70;;;0.68;;
14592;SDS011;7383;52.354;9.756;2023-03-11T15:23:30;0.73;;;0.73;;
14592;SDS011;7383;52.354;9.756;2023-03-11T15:26:13;1.00;;;0.90;;
14592;SDS011;7383;52.354;9.756;2023-03-11T15:29:12;0.88;;;0.88;;
14592;SDS011;7383;52.354;9.756;2023-03-11T15:31:46;1.02;;;1.00;;
14592;SDS011;7383;52.354;9.756;2023-03-11T15:34:26;2.20;;;0.98;;
14592;SDS011;7383;52.354;9.756;2023-03-11T15:37:16;1.25;;;0.90;;
14592;SDS011;7383;52.354;9.756;2023-03-11T15:40:09;0.82;;;0.80;;
14592;SDS011;7383;52.354;9.756;2023-03-11T15:42:43;1.95;;;1.05;;
14592;SDS011;7383;52.354;9.756;2023-03-11T15:45:16;1.08;;;0.73;;
14592;SDS011;7383;52.354;9.756;2023-03-11T15:47:47;0.73;;;0.70;;